createdAt,value
2022-09-23T00:02:47.831Z,18.10
2022-09-23T00:12:52.372Z,16.02
2022-09-23T00:22:55.272Z,16.23
2022-09-23T00:33:00.352Z,18.08
2022-09-23T00:43:03.304Z,15.73
2022-09-23T00:53:12.318Z,18.38
2022-09-23T01:03:15.648Z,17.75
2022-09-23T01:13:26.468Z,19.80
2022-09-23T01:24:04.501Z,19.00
2022-09-23T01:34:15.166Z,16.10
2022-09-23T01:44:22.997Z,18.60
2022-09-23T01:54:32.769Z,19.55
2022-09-23T02:04:41.326Z,24.35
2022-09-23T02:14:50.065Z,19.95
2022-09-23T02:24:54.779Z,23.08
2022-09-23T02:35:05.810Z,22.03
2022-09-23T02:45:09.383Z,18.80
2022-09-23T02:55:17.876Z,21.92
2022-09-23T03:05:25.838Z,21.50
2022-09-23T03:15:36.914Z,17.15
2022-09-23T03:25:44.750Z,19.80
2022-09-23T03:36:11.862Z,18.70
2022-09-23T03:46:18.369Z,19.33
2022-09-23T03:56:22.720Z,19.65
2022-09-23T04:06:25.801Z,19.40
2022-09-23T04:16:30.246Z,19.58
2022-09-23T04:26:34.779Z,13.80
2022-09-23T04:36:39.102Z,17.90
2022-09-23T04:46:42.609Z,20.38
2022-09-23T04:56:46.998Z,19.02
2022-09-23T05:06:49.941Z,20.47
2022-09-23T05:16:54.350Z,18.70
2022-09-23T05:26:57.282Z,24.47
2022-09-23T05:37:01.611Z,21.20
2022-09-23T05:47:04.823Z,14.80
2022-09-23T05:57:09.330Z,17.30
2022-09-23T06:07:12.515Z,14.10
2022-09-23T06:17:16.939Z,16.55
2022-09-23T06:27:19.962Z,16.20
2022-09-23T06:37:24.510Z,18.58
2022-09-23T06:47:27.555Z,20.57
2022-09-23T06:57:34.134Z,13.07
2022-09-23T07:07:38.302Z,16.95
2022-09-23T07:17:43.966Z,16.50
2022-09-23T07:27:48.917Z,13.05
2022-09-23T07:37:53.756Z,18.73
2022-09-23T07:47:57.184Z,18.23
2022-09-23T07:58:01.914Z,17.35
2022-09-23T08:08:07.186Z,15.75
2022-09-23T08:18:11.542Z,16.40
2022-09-23T08:28:16.254Z,17.17
2022-09-23T08:38:20.779Z,18.35
2022-09-23T08:48:30.331Z,15.33
2022-09-23T08:58:44.543Z,13.50
2022-09-23T09:08:55.548Z,10.33
2022-09-23T09:19:01.450Z,14.23
2022-09-23T09:29:23.809Z,11.00
2022-09-23T09:39:35.170Z,8.38
2022-09-23T09:49:47.217Z,8.48
2022-09-23T09:59:52.227Z,9.90
2022-09-23T10:10:01.835Z,11.20
2022-09-23T10:20:17.475Z,8.98
2022-09-23T10:30:23.449Z,11.77
2022-09-23T10:40:49.267Z,8.77
2022-09-23T10:51:00.599Z,7.28
2022-09-23T11:01:20.088Z,13.77
2022-09-23T11:11:36.414Z,11.88
2022-09-23T11:21:57.340Z,12.02
2022-09-23T11:32:12.425Z,15.00
2022-09-23T11:42:22.670Z,9.38
2022-09-23T11:52:30.687Z,8.85
2022-09-23T12:03:04.955Z,7.05
2022-09-23T12:13:22.707Z,6.78
2022-09-23T12:23:52.785Z,12.88
2022-09-23T12:33:56.308Z,7.57
2022-09-23T12:44:25.549Z,6.63
2022-09-23T12:54:28.808Z,9.25
2022-09-23T13:05:01.316Z,10.63
2022-09-23T13:15:21.004Z,10.50
2022-09-23T13:25:34.418Z,10.95
2022-09-23T13:35:39.319Z,12.27
2022-09-23T13:45:46.175Z,11.43
2022-09-23T13:56:01.597Z,17.60
2022-09-23T14:06:11.178Z,8.55
2022-09-23T14:16:17.173Z,12.02
2022-09-23T14:26:22.474Z,11.32
2022-09-23T14:36:44.049Z,10.45
2022-09-23T14:46:57.501Z,17.05
2022-09-23T14:57:01.482Z,18.87
2022-09-23T15:07:15.930Z,14.18
2022-09-23T15:27:33.556Z,15.55
2022-09-23T15:37:36.878Z,16.77
2022-09-23T15:47:41.290Z,24.40
2022-09-23T16:07:49.430Z,17.73
2022-09-23T16:17:52.922Z,21.60
2022-09-23T16:28:00.154Z,20.80
2022-09-23T16:38:07.830Z,18.00
2022-09-23T16:48:19.987Z,19.90
2022-09-23T16:58:23.135Z,17.58
2022-09-23T17:08:27.597Z,22.77
2022-09-23T17:18:31.536Z,20.05
2022-09-23T17:28:36.245Z,18.03
2022-09-23T17:48:46.247Z,19.60
2022-09-23T17:58:50.609Z,21.00
2022-09-23T18:08:56.437Z,11.88
2022-09-23T18:19:01.036Z,17.95
2022-09-23T18:39:08.992Z,22.90
2022-09-23T18:49:30.942Z,22.33
2022-09-23T18:59:33.970Z,22.63
2022-09-23T19:09:38.568Z,23.48
2022-09-23T19:19:41.771Z,29.73
2022-09-23T19:29:47.596Z,26.88
2022-09-23T19:39:50.610Z,29.20
2022-09-23T19:49:55.028Z,33.00
2022-09-23T19:59:58.196Z,32.75
2022-09-23T20:10:02.627Z,36.25
2022-09-23T20:20:06.009Z,29.88
2022-09-23T20:30:12.036Z,34.63
2022-09-23T20:40:15.233Z,35.28
2022-09-23T20:50:19.819Z,28.17
2022-09-23T21:00:23.000Z,27.45
2022-09-23T21:10:27.354Z,21.70
2022-09-23T21:20:30.585Z,22.97
2022-09-23T21:30:35.262Z,24.10
2022-09-23T21:40:55.930Z,21.55
2022-09-23T21:51:02.248Z,24.80
2022-09-23T22:01:08.982Z,20.63
2022-09-23T22:11:35.327Z,26.40
2022-09-23T22:21:40.631Z,23.42
2022-09-23T22:32:02.771Z,21.90
2022-09-23T22:42:05.774Z,26.05
2022-09-23T22:52:11.380Z,26.00
2022-09-23T23:02:15.466Z,29.48
2022-09-23T23:12:21.062Z,30.37
2022-09-23T23:22:28.427Z,27.70
2022-09-23T23:32:32.861Z,28.92
2022-09-23T23:42:35.818Z,27.93
2022-09-23T23:52:40.229Z,30.88
